Time;durP1;ratioP1;P1;durP2;ratioP2;P2;SDS_P1;SDS_P2;PMS_P1;PMS_P2;Temp;Humidity;BMP_temperature;BMP_pressure;BME280_temperature;BME280_humidity;BME280_pressure;Samples;Min_cycle;Max_cycle;Signal;HPM_P1;HPM_P2
2023/05/09 00:00:51;;;;;;;34.22;25.05;;;;;;;;;;5071639;28;20384;-73
2023/05/09 00:03:17;;;;;;;33.03;23.90;;;;;;;;;;5071520;28;20024;-73
2023/05/09 00:05:43;;;;;;;36.13;26.73;;;;;;;;;;5070962;28;20480;-72
2023/05/09 00:08:09;;;;;;;37.15;27.33;;;;;;;;;;5065628;28;20024;-73
2023/05/09 00:10:36;;;;;;;41.38;29.60;;;;;;;;;;5076651;28;20068;-74
2023/05/09 00:13:02;;;;;;;39.25;28.48;;;;;;;;;;5070853;28;20024;-73
2023/05/09 00:15:28;;;;;;;39.97;30.48;;;;;;;;;;5072209;28;20025;-73
2023/05/09 00:17:54;;;;;;;41.60;30.85;;;;;;;;;;5072949;28;20025;-73
2023/05/09 00:20:20;;;;;;;40.00;29.77;;;;;;;;;;5071921;28;20099;-73
2023/05/09 00:22:46;;;;;;;37.47;29.10;;;;;;;;;;5070418;28;20025;-72
2023/05/09 00:25:12;;;;;;;38.08;28.95;;;;;;;;;;5075713;28;20091;-74
2023/05/09 00:27:38;;;;;;;37.25;29.75;;;;;;;;;;5075917;28;20111;-73
2023/05/09 00:30:05;;;;;;;39.95;29.80;;;;;;;;;;5070897;28;20606;-74
2023/05/09 00:32:32;;;;;;;41.58;30.83;;;;;;;;;;5071064;28;20542;-73
2023/05/09 00:34:58;;;;;;;39.78;30.30;;;;;;;;;;5070937;28;20028;-73
2023/05/09 00:37:24;;;;;;;40.08;31.17;;;;;;;;;;5071254;28;20048;-73
2023/05/09 00:39:50;;;;;;;40.28;30.98;;;;;;;;;;5070533;28;20473;-73
2023/05/09 00:42:16;;;;;;;46.03;31.67;;;;;;;;;;5065819;28;20024;-73
2023/05/09 00:44:42;;;;;;;40.60;31.38;;;;;;;;;;5064269;28;20587;-72
2023/05/09 00:47:08;;;;;;;42.55;32.28;;;;;;;;;;5063941;28;20053;-73
2023/05/09 00:49:34;;;;;;;41.17;30.65;;;;;;;;;;5063233;28;20093;-73
2023/05/09 00:52:00;;;;;;;37.33;28.63;;;;;;;;;;5069986;28;20028;-73
2023/05/09 00:54:26;;;;;;;37.78;29.38;;;;;;;;;;5070820;28;20027;-74
2023/05/09 00:56:52;;;;;;;40.05;29.08;;;;;;;;;;5069344;28;20381;-74
2023/05/09 00:59:18;;;;;;;43.10;29.73;;;;;;;;;;5065228;28;20033;-74
2023/05/09 01:01:44;;;;;;;37.72;29.98;;;;;;;;;;5069752;28;20107;-73
2023/05/09 01:04:11;;;;;;;40.22;30.15;;;;;;;;;;5070606;28;20029;-73
2023/05/09 01:06:56;;;;;;;35.60;27.90;;;;;;;;;;5070929;28;20478;-72
2023/05/09 01:09:40;;;;;;;39.47;29.33;;;;;;;;;;5070314;28;20082;-74
2023/05/09 01:12:15;;;;;;;36.58;26.98;;;;;;;;;;5069705;28;20038;-72
2023/05/09 01:15:03;;;;;;;33.67;25.92;;;;;;;;;;5070824;28;20078;-74
2023/05/09 01:17:48;;;;;;;36.50;27.25;;;;;;;;;;5079719;28;20388;-73
2023/05/09 01:20:19;;;;;;;32.33;26.55;;;;;;;;;;5075543;28;20477;-73
2023/05/09 01:22:55;;;;;;;32.95;25.50;;;13.00;99.90;;;;;;5073870;28;20013;-71
2023/05/09 01:25:38;;;;;;;35.22;25.58;;;;;;;;;;5074667;28;20036;-73
2023/05/09 01:28:23;;;;;;;38.25;27.95;;;;;;;;;;5070423;28;20096;-74
2023/05/09 01:30:51;;;;;;;40.67;30.77;;;;;;;;;;5072420;28;20432;-73
2023/05/09 01:33:18;;;;;;;48.33;33.78;;;;;;;;;;5074564;28;20046;-73
2023/05/09 01:35:49;;;;;;;47.80;33.72;;;;;;;;;;5069520;28;20097;-72
2023/05/09 01:38:18;;;;;;;43.58;32.92;;;;;;;;;;5069743;28;20500;-73
2023/05/09 01:40:47;;;;;;;45.67;31.48;;;;;;;;;;5073921;28;20032;-72
2023/05/09 01:43:16;;;;;;;36.85;27.77;;;;;;;;;;5074543;28;20031;-72
2023/05/09 01:45:43;;;;;;;48.58;32.80;;;;;;;;;;5074770;28;20024;-72
2023/05/09 01:48:11;;;;;;;45.25;32.72;;;;;;;;;;5073371;28;20053;-74
2023/05/09 01:50:40;;;;;;;40.80;29.35;;;;;;;;;;5074713;28;20029;-73
2023/05/09 01:53:06;;;;;;;48.50;34.10;;;12.80;99.90;;;;;;5073455;28;20024;-73
2023/05/09 01:55:35;;;;;;;41.38;30.45;;;12.80;99.90;;;;;;5074395;28;20094;-72
2023/05/09 01:58:03;;;;;;;38.78;27.40;;;12.70;99.90;;;;;;5073914;28;20061;-75
2023/05/09 02:00:33;;;;;;;38.35;28.10;;;12.70;99.90;;;;;;5074356;28;20043;-74
2023/05/09 02:02:59;;;;;;;38.90;29.30;;;12.60;99.90;;;;;;5071780;28;20024;-75
2023/05/09 02:05:27;;;;;;;41.92;30.30;;;12.60;99.90;;;;;;5063913;28;20027;-74
2023/05/09 02:07:58;;;;;;;46.00;31.38;;;12.60;99.90;;;;;;5073135;28;20021;-73
2023/05/09 02:10:26;;;;;;;42.95;30.05;;;12.60;99.90;;;;;;5073993;28;20550;-74
2023/05/09 02:12:52;;;;;;;49.15;31.25;;;12.60;99.90;;;;;;5073316;28;20028;-73
2023/05/09 02:15:17;;;;;;;42.17;30.08;;;12.50;99.90;;;;;;5070077;28;20031;-73
2023/05/09 02:17:43;;;;;;;45.47;30.67;;;12.50;99.90;;;;;;5079168;28;20107;-72
2023/05/09 02:20:10;;;;;;;51.65;35.45;;;12.50;99.90;;;;;;5063913;28;20040;-73
2023/05/09 02:22:36;;;;;;;44.88;31.33;;;12.50;99.90;;;;;;5069432;28;20385;-73
2023/05/09 02:25:06;;;;;;;50.67;35.50;;;12.50;99.90;;;;;;5073480;28;20664;-73
2023/05/09 02:27:33;;;;;;;50.77;34.27;;;12.50;99.90;;;;;;5076995;28;20029;-73
2023/05/09 02:30:03;;;;;;;46.70;33.47;;;12.60;99.90;;;;;;5073671;28;20124;-74
2023/05/09 02:32:32;;;;;;;43.97;31.63;;;12.60;99.90;;;;;;5075034;28;20052;-74
2023/05/09 02:34:59;;;;;;;38.97;28.10;;;12.60;99.90;;;;;;5073261;28;20032;-74
2023/05/09 02:37:26;;;;;;;44.55;31.13;;;12.60;99.90;;;;;;5073479;28;20028;-73
2023/05/09 02:39:51;;;;;;;43.05;30.67;;;12.60;99.90;;;;;;5081329;28;20028;-73
2023/05/09 02:42:24;;;;;;;42.17;30.60;;;12.60;99.90;;;;;;5074493;28;20376;-72
2023/05/09 02:44:50;;;;;;;51.75;34.95;;;12.70;99.90;;;;;;5073161;28;20358;-73
2023/05/09 02:47:15;;;;;;;46.95;34.28;;;12.70;99.90;;;;;;5068802;28;20124;-73
2023/05/09 02:49:41;;;;;;;46.20;34.25;;;12.70;99.90;;;;;;5083476;28;20181;-72
2023/05/09 02:52:07;;;;;;;44.55;33.80;;;12.70;99.90;;;;;;5072451;28;20962;-73
2023/05/09 02:54:32;;;;;;;44.47;31.40;;;12.70;99.90;;;;;;5074176;28;20440;-73
2023/05/09 02:56:58;;;;;;;43.28;31.42;;;12.70;99.90;;;;;;5071960;28;20021;-72
2023/05/09 02:59:24;;;;;;;43.05;30.65;;;12.70;99.90;;;;;;5073732;28;20109;-73
2023/05/09 03:01:50;;;;;;;41.38;30.08;;;12.70;99.90;;;;;;5072045;28;20033;-73
2023/05/09 03:04:16;;;;;;;41.92;30.73;;;12.70;99.90;;;;;;5067607;28;20427;-73
2023/05/09 03:06:42;;;;;;;45.72;32.08;;;12.60;99.90;;;;;;5071486;28;20016;-72
2023/05/09 03:09:08;;;;;;;44.08;30.73;;;12.60;99.90;;;;;;5075685;28;20051;-73
2023/05/09 03:11:37;;;;;;;41.83;31.25;;;12.60;99.90;;;;;;5059681;28;20028;-73
2023/05/09 03:14:03;;;;;;;46.10;32.17;;;12.60;99.90;;;;;;5072043;28;20576;-73
2023/05/09 03:16:30;;;;;;;52.78;34.10;;;12.60;99.90;;;;;;5072725;28;20025;-73
2023/05/09 03:18:56;;;;;;;48.08;32.67;;;12.60;99.90;;;;;;5072644;28;20035;-74
2023/05/09 03:21:21;;;;;;;51.58;35.80;;;12.60;99.90;;;;;;5072738;28;20029;-73
2023/05/09 03:23:47;;;;;;;46.40;31.98;;;12.60;99.90;;;;;;5065146;28;20016;-73
2023/05/09 03:26:12;;;;;;;45.53;32.47;;;12.60;99.90;;;;;;5072602;28;20429;-73
2023/05/09 03:28:39;;;;;;;50.72;34.67;;;12.50;99.90;;;;;;5076704;28;20421;-73
2023/05/09 03:31:05;;;;;;;47.92;33.90;;;12.60;99.90;;;;;;5071691;28;20028;-72
2023/05/09 03:33:30;;;;;;;44.10;32.38;;;12.50;99.90;;;;;;5072137;28;20032;-74
2023/05/09 03:35:56;;;;;;;49.45;34.15;;;12.50;99.90;;;;;;5071758;28;20043;-72
2023/05/09 03:38:23;;;;;;;44.75;31.33;;;12.50;99.90;;;;;;5071880;28;20102;-73
2023/05/09 03:40:50;;;;;;;47.25;32.63;;;12.50;99.90;;;;;;5053251;28;20366;-72
2023/05/09 03:43:15;;;;;;;43.50;31.05;;;12.50;99.90;;;;;;5071555;28;20028;-73
2023/05/09 03:45:41;;;;;;;45.25;31.13;;;12.50;99.90;;;;;;5072163;28;20027;-74
2023/05/09 03:48:08;;;;;;;44.40;30.80;;;12.50;99.90;;;;;;5070316;28;20052;-73
2023/05/09 03:50:34;;;;;;;49.10;34.33;;;12.50;99.90;;;;;;5072118;28;20040;-73
2023/05/09 03:53:00;;;;;;;52.50;37.00;;;12.50;99.90;;;;;;5070844;28;20044;-72
2023/05/09 03:55:26;;;;;;;56.00;38.10;;;12.50;99.90;;;;;;5072164;28;20028;-73
2023/05/09 03:57:52;;;;;;;52.10;36.28;;;12.50;99.90;;;;;;5069816;28;20029;-73
2023/05/09 04:00:18;;;;;;;51.95;36.33;;;12.50;99.90;;;;;;5061971;28;20036;-73
2023/05/09 04:02:44;;;;;;;51.38;35.90;;;12.50;99.90;;;;;;5071005;28;20044;-73
2023/05/09 04:05:09;;;;;;;55.28;38.53;;;12.50;99.90;;;;;;5072271;28;20032;-74
2023/05/09 04:07:35;;;;;;;53.55;37.53;;;12.50;99.90;;;;;;5071554;28;20028;-74
2023/05/09 04:10:00;;;;;;;51.13;36.45;;;12.60;99.90;;;;;;5071429;28;20036;-74
2023/05/09 04:12:26;;;;;;;47.67;34.42;;;12.60;99.90;;;;;;5071668;28;20073;-75
2023/05/09 04:14:52;;;;;;;50.10;35.28;;;12.60;99.90;;;;;;5071333;28;20064;-74
2023/05/09 04:17:17;;;;;;;52.22;34.70;;;12.60;99.90;;;;;;5072923;28;20062;-72
2023/05/09 04:19:43;;;;;;;46.70;33.10;;;12.60;99.90;;;;;;5071905;28;20490;-71
2023/05/09 04:22:09;;;;;;;41.92;29.92;;;12.60;99.90;;;;;;5062562;28;20040;-73
2023/05/09 04:24:34;;;;;;;42.47;30.20;;;12.60;99.90;;;;;;5071810;28;20492;-73
2023/05/09 04:27:01;;;;;;;40.15;30.70;;;12.60;99.90;;;;;;5073573;28;20028;-73
2023/05/09 04:29:26;;;;;;;41.20;29.48;;;12.60;99.90;;;;;;5071775;28;20029;-74
2023/05/09 04:31:52;;;;;;;38.63;28.30;;;12.60;99.90;;;;;;5070539;28;20025;-73
2023/05/09 04:34:18;;;;;;;38.40;27.40;;;12.60;99.90;;;;;;5071907;28;20035;-73
2023/05/09 04:36:46;;;;;;;39.95;29.23;;;12.70;99.90;;;;;;5071316;28;20358;-73
2023/05/09 04:39:12;;;;;;;40.13;29.77;;;12.70;99.90;;;;;;5071224;28;20048;-73
2023/05/09 04:41:38;;;;;;;50.90;35.38;;;12.70;99.90;;;;;;5074119;28;20105;-73
2023/05/09 04:44:04;;;;;;;51.08;36.33;;;12.70;99.90;;;;;;5070133;28;20106;-73
2023/05/09 04:46:29;;;;;;;46.50;33.22;;;12.70;99.90;;;;;;5070956;28;20040;-72
2023/05/09 04:48:55;;;;;;;46.05;32.50;;;12.80;99.90;;;;;;5062051;28;20029;-72
2023/05/09 04:51:21;;;;;;;41.47;29.58;;;12.80;99.90;;;;;;5068366;28;20030;-72
2023/05/09 04:53:46;;;;;;;44.35;32.55;;;12.90;99.90;;;;;;5070329;28;20024;-71
2023/05/09 04:56:12;;;;;;;41.58;29.92;;;12.90;99.90;;;;;;5071223;28;20031;-72
2023/05/09 04:58:38;;;;;;;34.40;27.05;;;13.00;99.90;;;;;;5068486;28;20445;-73
2023/05/09 05:01:04;;;;;;;36.00;26.58;;;13.10;99.90;;;;;;5070448;28;20067;-73
2023/05/09 05:03:31;;;;;;;34.58;26.77;;;13.20;99.90;;;;;;5070656;28;20032;-73
2023/05/09 05:05:56;;;;;;;40.15;29.67;;;13.30;99.90;;;;;;5070438;28;20442;-74
2023/05/09 05:08:22;;;;;;;39.28;29.85;;;13.50;99.90;;;;;;5057343;28;20103;-74
2023/05/09 05:10:48;;;;;;;37.03;28.17;;;13.60;99.90;;;;;;5070531;28;20497;-74
2023/05/09 05:13:14;;;;;;;34.95;27.02;;;13.70;99.90;;;;;;5064323;28;20029;-74
2023/05/09 05:15:40;;;;;;;38.58;28.88;;;13.70;99.90;;;;;;5060405;28;20170;-74
2023/05/09 05:18:05;;;;;;;32.53;26.58;;;13.80;99.90;;;;;;5072098;28;20094;-73
2023/05/09 05:20:31;;;;;;;39.63;27.83;;;13.80;99.90;;;;;;5066466;28;20033;-73
2023/05/09 05:22:57;;;;;;;38.08;27.40;;;14.00;99.90;;;;;;5068956;28;20373;-72
2023/05/09 05:25:23;;;;;;;37.28;27.20;;;14.10;99.90;;;;;;5070825;28;20457;-74
2023/05/09 05:27:49;;;;;;;30.33;24.33;;;14.20;99.90;;;;;;5074344;28;20078;-73
2023/05/09 05:30:14;;;;;;;35.53;26.73;;;14.30;99.90;;;;;;5070384;28;20037;-74
2023/05/09 05:32:40;;;;;;;31.83;25.58;;;14.40;99.90;;;;;;5059576;28;20036;-74
2023/05/09 05:35:06;;;;;;;35.33;25.58;;;14.40;99.90;;;;;;5069576;28;20094;-73
2023/05/09 05:37:32;;;;;;;34.72;26.52;;;14.30;99.90;;;;;;5070434;28;20025;-76
2023/05/09 05:39:58;;;;;;;34.40;26.05;;;14.30;99.90;;;;;;5070393;28;20028;-79
2023/05/09 05:42:23;;;;;;;31.35;25.52;;;14.30;99.90;;;;;;5070019;28;20029;-73
2023/05/09 05:44:49;;;;;;;31.33;24.63;;;14.40;99.90;;;;;;5069156;28;20043;-72
2023/05/09 05:47:14;;;;;;;30.10;24.23;;;14.40;99.90;;;;;;5069544;28;20412;-72
2023/05/09 05:49:40;;;;;;;35.50;26.50;;;14.40;99.90;;;;;;5070213;28;20072;-72
2023/05/09 05:52:06;;;;;;;41.47;27.30;;;14.40;99.90;;;;;;5069506;28;20017;-73
2023/05/09 05:54:31;;;;;;;34.50;25.70;;;14.50;99.90;;;;;;5070651;28;20040;-77
2023/05/09 05:56:57;;;;;;;36.97;26.50;;;14.50;99.90;;;;;;5075291;28;20104;-72
2023/05/09 05:59:22;;;;;;;32.63;25.17;;;14.50;99.90;;;;;;5007485;28;20472;-75
2023/05/09 06:01:48;;;;;;;32.38;25.08;;;14.50;99.90;;;;;;5061660;28;20119;-77
2023/05/09 06:04:13;;;;;;;30.17;24.95;;;14.50;99.90;;;;;;5069421;28;20477;-78
2023/05/09 06:06:39;;;;;;;32.25;25.10;;;14.60;99.90;;;;;;5067176;28;20052;-77
2023/05/09 06:09:05;;;;;;;31.23;25.52;;;14.60;99.90;;;;;;5064753;28;20036;-76
2023/05/09 06:11:30;;;;;;;33.03;25.35;;;14.80;99.90;;;;;;5057684;28;20028;-76
2023/05/09 06:13:56;;;;;;;30.70;24.20;;;14.90;99.90;;;;;;5062567;28;20029;-76
2023/05/09 06:16:22;;;;;;;30.10;23.10;;;15.10;99.90;;;;;;5072504;28;20025;-80
2023/05/09 06:18:47;;;;;;;27.52;22.92;;;15.20;99.90;;;;;;5072955;28;20050;-73
2023/05/09 06:21:13;;;;;;;30.95;24.23;;;15.40;99.90;;;;;;5072316;28;20025;-74
2023/05/09 06:23:39;;;;;;;24.98;21.58;;;15.50;99.90;;;;;;5072704;28;20489;-74
2023/05/09 06:26:04;;;;;;;29.70;21.65;;;15.60;99.90;;;;;;5068163;28;20561;-74
2023/05/09 06:28:30;;;;;;;33.00;24.33;;;15.70;99.90;;;;;;5062397;28;20102;-74
2023/05/09 06:30:56;;;;;;;27.00;21.77;;;16.00;99.90;;;;;;5070000;28;20101;-74
2023/05/09 06:33:21;;;;;;;28.58;21.30;;;16.10;99.90;;;;;;5052170;28;20089;-74
2023/05/09 06:35:47;;;;;;;33.33;22.58;;;16.20;99.90;;;;;;5053364;28;20040;-73
2023/05/09 06:38:12;;;;;;;26.48;21.35;;;16.40;99.90;;;;;;5068127;28;20096;-73
2023/05/09 06:40:38;;;;;;;25.95;22.13;;;16.50;99.90;;;;;;5068535;28;20086;-72
2023/05/09 06:43:03;;;;;;;23.63;20.27;;;16.60;99.90;;;;;;5061045;28;20052;-73
2023/05/09 06:45:29;;;;;;;27.95;23.10;;;16.60;99.90;;;;;;5069091;28;20370;-74
2023/05/09 06:47:55;;;;;;;22.25;19.80;;;16.70;99.90;;;;;;5075649;28;20470;-74
2023/05/09 06:50:21;;;;;;;29.95;21.25;;;16.60;99.90;;;;;;5063651;28;20091;-74
2023/05/09 06:52:47;;;;;;;25.75;20.80;;;16.60;99.90;;;;;;5066204;28;20082;-74
2023/05/09 06:55:12;;;;;;;26.42;21.40;;;16.70;99.90;;;;;;5072117;28;20060;-74
2023/05/09 06:57:39;;;;;;;26.63;20.85;;;16.70;99.90;;;;;;5070081;28;20136;-75
2023/05/09 07:00:05;;;;;;;23.45;19.35;;;16.80;99.90;;;;;;5065815;28;20032;-75
2023/05/09 07:02:31;;;;;;;24.77;20.13;;;16.80;99.90;;;;;;5070380;28;20051;-76
2023/05/09 07:04:57;;;;;;;23.17;19.63;;;17.00;99.90;;;;;;5067448;28;20059;-73
2023/05/09 07:07:22;;;;;;;23.90;21.13;;;17.20;99.90;;;;;;5059496;28;20106;-74
2023/05/09 07:09:48;;;;;;;28.10;22.00;;;17.50;99.90;;;;;;5063625;28;20060;-74
2023/05/09 07:12:13;;;;;;;22.27;19.20;;;17.90;99.90;;;;;;5066618;28;20167;-74
2023/05/09 07:14:40;;;;;;;22.77;17.67;;;18.10;99.90;;;;;;5061199;28;20032;-73
2023/05/09 07:17:07;;;;;;;21.90;19.27;;;18.30;99.90;;;;;;5069226;28;20032;-74
2023/05/09 07:19:33;;;;;;;25.73;20.42;;;18.50;99.90;;;;;;5069076;28;20031;-75
2023/05/09 07:21:59;;;;;;;20.15;17.08;;;18.70;99.90;;;;;;5065076;28;20037;-75
2023/05/09 07:24:24;;;;;;;23.58;18.83;;;18.70;99.90;;;;;;5071198;28;20021;-73
2023/05/09 07:26:50;;;;;;;21.90;19.02;;;18.90;99.90;;;;;;5072609;28;20119;-75
2023/05/09 07:29:17;;;;;;;20.48;17.38;;;19.00;99.90;;;;;;5066153;28;20151;-74
2023/05/09 07:31:42;;;;;;;21.58;18.13;;;19.00;99.90;;;;;;5065623;28;20026;-71
2023/05/09 07:34:08;;;;;;;22.88;18.23;;;19.00;99.90;;;;;;5067682;28;20028;-74
2023/05/09 07:36:34;;;;;;;23.02;19.08;;;19.10;99.90;;;;;;5058250;28;20112;-74
2023/05/09 07:38:59;;;;;;;19.55;17.45;;;19.20;99.90;;;;;;5066114;28;20029;-74
2023/05/09 07:41:25;;;;;;;23.00;19.17;;;19.30;99.90;;;;;;5066430;28;20060;-73
2023/05/09 07:43:51;;;;;;;21.23;17.67;;;19.40;99.90;;;;;;5069300;28;20036;-75
2023/05/09 07:46:16;;;;;;;20.95;17.65;;;19.50;99.90;;;;;;5064844;28;20040;-74
2023/05/09 07:48:42;;;;;;;20.42;17.83;;;19.60;99.90;;;;;;5066094;28;20028;-71
2023/05/09 07:51:08;;;;;;;23.40;19.45;;;19.50;99.90;;;;;;5062466;28;20143;-73
2023/05/09 07:53:33;;;;;;;23.90;18.35;;;19.60;99.90;;;;;;5062550;28;20056;-74
2023/05/09 07:55:59;;;;;;;21.70;16.98;;;19.70;99.90;;;;;;5066888;28;20100;-74
2023/05/09 07:58:25;;;;;;;19.45;16.42;;;19.60;99.90;;;;;;5065619;28;20099;-73
2023/05/09 08:00:50;;;;;;;20.30;17.17;;;19.60;99.90;;;;;;5066333;28;20036;-73
2023/05/09 08:03:16;;;;;;;19.35;17.13;;;19.60;99.90;;;;;;5047164;28;20123;-74
2023/05/09 08:05:42;;;;;;;19.42;17.33;;;19.70;99.90;;;;;;5067836;28;20055;-71
2023/05/09 08:08:07;;;;;;;20.75;16.73;;;19.70;99.90;;;;;;5068590;28;20029;-74
2023/05/09 08:10:33;;;;;;;22.45;18.75;;;19.80;99.90;;;;;;5060095;28;20037;-74
2023/05/09 08:12:59;;;;;;;18.98;15.00;;;20.00;99.90;;;;;;5068581;28;20401;-73
2023/05/09 08:15:24;;;;;;;24.15;17.85;;;20.00;99.90;;;;;;5066508;28;20081;-73
2023/05/09 08:17:50;;;;;;;20.35;16.88;;;20.10;99.90;;;;;;5071349;28;20032;-72
2023/05/09 08:20:16;;;;;;;20.70;17.67;;;20.10;99.90;;;;;;5064037;28;20481;-73
2023/05/09 08:22:42;;;;;;;20.73;15.18;;;20.00;99.90;;;;;;5065300;28;20032;-74
2023/05/09 08:25:08;;;;;;;18.90;16.23;;;19.90;99.90;;;;;;5066632;28;20035;-73
2023/05/09 08:27:33;;;;;;;17.48;15.57;;;19.70;99.90;;;;;;5069448;28;20732;-73
2023/05/09 08:29:59;;;;;;;16.55;14.40;;;19.70;99.90;;;;;;5067619;28;20032;-74
2023/05/09 08:32:25;;;;;;;18.60;16.45;;;19.60;99.90;;;;;;5067386;28;20028;-74
2023/05/09 08:34:51;;;;;;;17.92;15.15;;;19.70;99.90;;;;;;5068589;28;20040;-74
2023/05/09 08:37:16;;;;;;;21.73;17.30;;;19.80;99.90;;;;;;5069440;28;20024;-74
2023/05/09 08:39:42;;;;;;;18.90;15.93;;;19.80;99.90;;;;;;5062873;28;20028;-71
2023/05/09 08:42:09;;;;;;;19.02;15.18;;;19.90;99.90;;;;;;5069528;28;20064;-74
2023/05/09 08:44:35;;;;;;;20.33;15.82;;;20.00;99.90;;;;;;5069746;28;20052;-74
2023/05/09 08:47:02;;;;;;;18.70;14.90;;;20.00;99.90;;;;;;5058182;28;20083;-74
2023/05/09 08:49:28;;;;;;;18.58;16.13;;;20.10;99.90;;;;;;5062035;28;20052;-74
2023/05/09 08:51:55;;;;;;;21.48;18.35;;;20.20;99.90;;;;;;5057052;28;20025;-74
2023/05/09 08:54:22;;;;;;;18.23;15.75;;;20.20;99.90;;;;;;5068064;28;20040;-73
2023/05/09 08:56:49;;;;;;;16.65;13.98;;;20.30;99.90;;;;;;5057048;28;20032;-72
2023/05/09 08:59:16;;;;;;;24.23;18.02;;;20.40;99.90;;;;;;5066451;28;20115;-74
2023/05/09 09:01:42;;;;;;;20.23;16.88;;;20.40;99.90;;;;;;5066069;28;20035;-72
2023/05/09 09:04:10;;;;;;;16.92;14.43;;;20.40;99.90;;;;;;5062526;28;20093;-74
2023/05/09 09:06:37;;;;;;;19.77;17.48;;;20.60;99.90;;;;;;5069068;28;20465;-75
2023/05/09 09:09:05;;;;;;;21.02;16.58;;;20.70;99.90;;;;;;5066210;28;20087;-74
2023/05/09 09:11:32;;;;;;;20.77;16.13;;;20.80;99.90;;;;;;5065170;28;20463;-74
2023/05/09 09:14:01;;;;;;;18.60;16.60;;;20.80;99.90;;;;;;5051568;28;20393;-74
2023/05/09 09:16:28;;;;;;;15.13;12.43;;;20.70;99.90;;;;;;5065492;28;20520;-74
2023/05/09 09:18:56;;;;;;;19.92;15.02;;;20.70;99.90;;;;;;5053370;28;20037;-74
2023/05/09 09:21:25;;;;;;;16.48;14.65;;;20.90;99.90;;;;;;5069269;28;20029;-75
2023/05/09 09:23:53;;;;;;;23.98;17.65;;;21.00;99.90;;;;;;5068783;28;20032;-74
2023/05/09 09:26:18;;;;;;;18.67;13.70;;;21.10;99.90;;;;;;5067560;28;20048;-73
2023/05/09 09:28:44;;;;;;;17.45;14.57;;;21.10;99.90;;;;;;5070111;28;20449;-70
2023/05/09 09:31:27;;;;;;;16.17;13.43;;;21.10;99.90;;;;;;5068007;28;20029;-75
2023/05/09 09:33:59;;;;;;;15.10;12.30;;;21.00;99.90;;;;;;5061429;28;20370;-75
2023/05/09 09:36:29;;;;;;;14.52;12.00;;;21.00;99.90;;;;;;5060938;28;20520;-74
2023/05/09 09:39:03;;;;;;;12.75;11.38;;;21.20;99.90;;;;;;5067455;28;20028;-74
2023/05/09 09:41:39;;;;;;;14.50;11.95;;;;;;;;;;5068565;28;20565;-74
2023/05/09 09:44:18;;;;;;;15.07;11.00;;;21.50;99.90;;;;;;5070195;28;20611;-74
2023/05/09 09:46:54;;;;;;;20.57;13.60;;;21.80;99.90;;;;;;5069293;28;20363;-70
2023/05/09 09:49:25;;;;;;;18.52;11.82;;;22.00;99.90;;;;;;5067951;28;20048;-74
2023/05/09 09:51:51;;;;;;;23.90;13.85;;;22.20;99.90;;;;;;5070684;28;20469;-74
2023/05/09 09:54:16;;;;;;;13.77;12.18;;;22.40;99.90;;;;;;5066080;28;20100;-75
2023/05/09 09:56:43;;;;;;;17.50;12.85;;;22.60;99.90;;;;;;5070482;28;20454;-72
2023/05/09 09:59:14;;;;;;;12.35;10.98;;;22.60;99.90;;;;;;5069004;28;20120;-75
2023/05/09 10:02:03;;;;;;;11.80;10.23;;;22.70;99.90;;;;;;5061779;28;20081;-73
2023/05/09 10:04:35;;;;;;;20.33;13.77;;;23.00;99.90;;;;;;5064457;28;20397;-74
2023/05/09 10:07:03;;;;;;;17.50;11.65;;;23.20;99.90;;;;;;5065981;28;20035;-74
2023/05/09 10:09:30;;;;;;;15.77;12.13;;;;;;;;;;5070294;28;20097;-74
2023/05/09 10:11:56;;;;;;;15.48;12.35;;;;;;;;;;5068636;28;20033;-73
2023/05/09 10:14:23;;;;;;;14.65;12.15;;;;;;;;;;5072478;28;20021;-74
2023/05/09 10:16:52;;;;;;;18.88;13.40;;;;;;;;;;5071247;28;20517;-73
2023/05/09 10:19:22;;;;;;;14.10;10.38;;;;;;;;;;5068209;28;20037;-73
2023/05/09 10:21:52;;;;;;;14.77;11.93;;;;;;;;;;5069318;28;20078;-73
2023/05/09 10:24:26;;;;;;;14.35;11.57;;;;;;;;;;5067795;28;20025;-73
2023/05/09 10:26:55;;;;;;;15.15;11.73;;;;;;;;;;5064951;28;20496;-75
2023/05/09 10:29:23;;;;;;;13.18;11.77;;;;;;;;;;5068475;28;20488;-75
2023/05/09 10:31:51;;;;;;;15.43;13.85;;;;;;;;;;5068267;28;20167;-74
2023/05/09 10:34:19;;;;;;;14.68;13.10;;;;;;;;;;5072154;28;20021;-74
2023/05/09 10:36:46;;;;;;;13.68;12.27;;;;;;;;;;5063253;28;20028;-72
2023/05/09 10:39:12;;;;;;;11.05;9.95;;;;;;;;;;5068610;28;20029;-74
2023/05/09 10:41:39;;;;;;;13.60;11.80;;;;;;;;;;5071512;28;20563;-74
2023/05/09 10:44:05;;;;;;;13.13;11.82;;;;;;;;;;5070913;28;20098;-73
2023/05/09 10:46:31;;;;;;;16.17;13.40;;;;;;;;;;5063430;28;20095;-73
2023/05/09 10:48:57;;;;;;;14.05;12.50;;;;;;;;;;5065806;28;20104;-73
2023/05/09 10:51:23;;;;;;;13.15;11.68;;;;;;;;;;5064471;28;20127;-74
2023/05/09 10:53:50;;;;;;;16.05;13.52;;;;;;;;;;5070561;28;20107;-74
2023/05/09 10:56:28;;;;;;;14.02;12.52;;;;;;;;;;5070756;28;20078;-74
2023/05/09 10:58:54;;;;;;;11.82;10.23;;;;;;;;;;5061053;28;20109;-72
2023/05/09 11:01:31;;;;;;;15.55;13.27;;;;;;;;;;5070672;28;20017;-78
2023/05/09 11:03:58;;;;;;;16.15;13.38;;;;;;;;;;5061970;28;20378;-75
2023/05/09 11:06:40;;;;;;;15.25;12.45;;;;;;;;;;5067278;28;20021;-74
2023/05/09 11:09:25;;;;;;;11.55;10.35;;;;;;;;;;5055211;28;20016;-76
2023/05/09 11:11:52;;;;;;;15.95;12.20;;;;;;;;;;5065470;28;20399;-75
2023/05/09 11:14:37;;;;;;;12.48;10.48;;;;;;;;;;5069235;28;20639;-77
2023/05/09 11:17:04;;;;;;;12.38;10.88;;;;;;;;;;5065102;28;20484;-77
2023/05/09 11:19:37;;;;;;;11.32;9.40;;;;;;;;;;5060781;28;20542;-77
2023/05/09 11:22:23;;;;;;;12.02;8.73;;;;;;;;;;5062696;28;20186;-77
2023/05/09 11:24:58;;;;;;;9.95;7.97;;;;;;;;;;5071089;28;20024;-77
2023/05/09 11:27:27;;;;;;;9.05;6.93;;;;;;;;;;5064266;28;20048;-77
2023/05/09 11:29:55;;;;;;;9.43;8.50;;;;;;;;;;5048691;28;20363;-78
2023/05/09 11:32:22;;;;;;;9.93;8.52;;;;;;;;;;5064337;28;20025;-78
2023/05/09 11:34:48;;;;;;;11.10;9.27;;;;;;;;;;5067802;28;20044;-80
2023/05/09 11:37:18;;;;;;;8.65;6.50;;;;;;;;;;5058871;28;20103;-74
2023/05/09 11:40:01;;;;;;;11.02;6.88;;;;;;;;;;5059202;28;20151;-73
2023/05/09 11:42:28;;;;;;;11.60;6.78;;;;;;;;;;5063515;28;20035;-74
2023/05/09 11:44:55;;;;;;;7.97;4.90;;;;;;;;;;5060314;28;20616;-76
2023/05/09 11:47:21;;;;;;;8.65;6.07;;;;;;;;;;5064054;28;20048;-73
2023/05/09 11:49:48;;;;;;;6.78;6.07;;;;;;;;;;5063714;28;20033;-72
2023/05/09 11:52:14;;;;;;;6.85;5.47;;;;;;;;;;5058060;28;20028;-81
2023/05/09 11:54:40;;;;;;;6.95;4.30;;;25.80;96.00;;;;;;5057341;28;20123;-76
2023/05/09 11:57:06;;;;;;;5.53;3.90;;;25.90;96.00;;;;;;5054579;28;20133;-79
2023/05/09 11:59:35;;;;;;;5.97;4.63;;;26.00;95.60;;;;;;5055762;28;20032;-72
2023/05/09 12:02:05;;;;;;;4.30;3.90;;;25.80;94.90;;;;;;5054741;28;20071;-73
2023/05/09 12:04:31;;;;;;;3.90;3.50;;;;;;;;;;5054300;28;20032;-79
2023/05/09 12:06:58;;;;;;;3.70;3.40;;;;;;;;;;5065883;28;20081;-74
2023/05/09 12:09:26;;;;;;;5.93;3.70;;;;;;;;;;5061235;28;20031;-77
2023/05/09 12:11:52;;;;;;;4.88;3.72;;;;;;;;;;5056478;28;20025;-71
2023/05/09 12:14:31;;;;;;;4.70;3.22;;;;;;;;;;5056782;28;20021;-74
2023/05/09 12:16:58;;;;;;;5.10;4.10;;;;;;;;;;5011211;28;20685;-75
2023/05/09 12:19:24;;;;;;;7.78;4.00;;;;;;;;;;5049773;28;20024;-74
2023/05/09 12:21:55;;;;;;;4.78;4.38;;;;;;;;;;5058613;28;20028;-74
2023/05/09 12:24:21;;;;;;;5.07;4.57;;;;;;;;;;5061116;28;20077;-75
2023/05/09 12:26:48;;;;;;;4.10;3.60;;;;;;;;;;5062419;28;20028;-73
2023/05/09 12:29:14;;;;;;;5.15;4.15;;;27.00;93.30;;;;;;5064706;28;20120;-74
2023/05/09 12:31:43;;;;;;;3.00;2.80;;;27.00;93.30;;;;;;5063730;28;20029;-76
2023/05/09 12:34:09;;;;;;;4.95;3.80;;;26.90;92.90;;;;;;5057720;28;20466;-75
2023/05/09 12:36:35;;;;;;;4.90;3.53;;;26.90;92.40;;;;;;5064810;28;20040;-75
2023/05/09 12:39:07;;;;;;;4.38;3.97;;;26.90;93.40;;;;;;5061094;28;20036;-77
2023/05/09 12:41:33;;;;;;;4.68;3.70;;;26.80;93.70;;;;;;5059415;28;20473;-78
2023/05/09 12:43:59;;;;;;;5.03;3.13;;;26.50;92.80;;;;;;5064506;28;20025;-78
2023/05/09 12:46:25;;;;;;;6.60;3.85;;;26.30;92.60;;;;;;5043087;28;20027;-78
2023/05/09 12:48:51;;;;;;;4.88;3.20;;;26.20;93.30;;;;;;5060284;28;20036;-77
2023/05/09 12:51:20;;;;;;;3.55;3.25;;;26.10;93.70;;;;;;5059802;28;20033;-81
2023/05/09 12:53:46;;;;;;;4.95;2.75;;;26.10;94.10;;;;;;5055775;28;20025;-73
2023/05/09 12:56:19;;;;;;;2.80;2.60;;;26.20;93.40;;;;;;5059166;28;20040;-79
2023/05/09 12:58:53;;;;;;;6.18;2.88;;;26.20;93.70;;;;;;5059576;28;20035;-74
2023/05/09 13:01:27;;;;;;;2.95;2.70;;;26.10;93.10;;;;;;5054853;28;20104;-78